Atalanti — 5BYY2 — position and weather

sailwx.info

Track history (hours):
 
Tides and Currents Weather Stations Pressure Air Temp Water Temp Dewpoint Dewpoint Depression Visibility Wind Speed Wind Dir Waves Ship Positions

Atalanti

Last reported at 2014-Aug-31 15:17 UTC. Time now 2014-Sep-01 11:26 UTC.
Position N 40°50' E 014°06'.

Length 97 m; draft 4.1 m.

Type: Other ship. MMSI: 212279000.

Date/timePositionNaut miles runAvg speedWind from/ knotsBaromVisibWave heightAir tempDewpointWater temp
2014-Aug-31 15:17N 40°50' E 014°06'0 0.0
2014-Aug-31 10:32N 40°50' E 014°06'0 0.0
2014-Aug-31 09:32N 40°50' E 014°06'0 0.0
2014-Aug-30 22:20N 40°50' E 014°06'0 0.0
2014-Aug-30 21:26N 40°50' E 014°06'0 0.0
2014-Aug-30 14:20N 40°50' E 014°06'0 0.0
2014-Aug-30 13:32N 40°50' E 014°06'0 0.0
2014-Aug-30 12:32N 40°50' E 014°06'0 0.0
2014-Aug-30 11:32N 40°50' E 014°06'0 0.0
2014-Aug-30 10:32N 40°50' E 014°06'1 0.0
2014-Aug-29 21:20N 40°49' E 014°07'0 0.0
2014-Aug-28 13:14N 40°49' E 014°07'0 0.0
2014-Aug-28 12:32N 40°49' E 014°07'131 4.4
2014-Aug-27 06:33N 39°45' E 011°38'8 6.5
2014-Aug-27 05:18N 39°41' E 011°28'5 6.5
2014-Aug-27 04:27N 39°39' E 011°22'6 6.6
2014-Aug-27 03:34N 39°36' E 011°15'7 6.7
2014-Aug-27 02:31N 39°33' E 011°07'50 6.7
2014-Aug-26 19:05N 39°11' E 010°09'4 6.9
2014-Aug-26 18:31N 39°10' E 010°04'7 7.2
2014-Aug-26 17:33N 39°07' E 009°56'7 7.1
2014-Aug-26 16:33N 39°04' E 009°48'7 6.9
2014-Aug-26 15:33N 39°01' E 009°40'6 6.6
2014-Aug-26 14:33N 38°58' E 009°33'6 6.5
2014-Aug-26 13:34N 38°56' E 009°25'7 6.5
2014-Aug-26 12:33N 38°54' E 009°17'7 6.6
2014-Aug-26 11:33N 38°52' E 009°08'7 6.7
2014-Aug-26 10:33N 38°51' E 009°00'7 6.6
2014-Aug-26 09:33N 38°49' E 008°52'7 6.4
2014-Aug-26 08:27N 38°47' E 008°43'6 6.5
2014-Aug-26 07:29N 38°45' E 008°35'6 6.7
2014-Aug-26 06:33N 38°44' E 008°28'7 6.9
2014-Aug-26 05:33N 38°42' E 008°19'7 7.3
2014-Aug-26 04:33N 38°40' E 008°10'7 7.5
2014-Aug-26 03:33N 38°38' E 008°01'7 7.4
2014-Aug-26 02:33N 38°36' E 007°52'7 7.4
2014-Aug-26 01:33N 38°34' E 007°43'22 7.2
2014-Aug-25 22:32N 38°28' E 007°16'8 7.3
2014-Aug-25 21:24N 38°26' E 007°06'51 7.3
2014-Aug-25 14:24N 38°12' E 006°03'6 7.4
2014-Aug-25 13:33N 38°10' E 005°55'43 7.2
2014-Aug-25 07:33N 38°00' E 005°02'7 7.3
2014-Aug-25 06:32N 37°58' E 004°52'7 7.3
2014-Aug-25 05:33N 37°56' E 004°44'7 7.2
2014-Aug-25 04:33N 37°54' E 004°35'7 7.1
2014-Aug-25 03:33N 37°52' E 004°26'7 6.9
2014-Aug-25 02:33N 37°50' E 004°18'7 6.8
2014-Aug-25 01:27N 37°48' E 004°09'  
2014-Aug-22 11:23N 35°60' W 005°15'810.1
2014-Aug-22 10:33N 35°58' W 005°25'  
Track history (hours):
 
Tides and Currents Weather Stations Pressure Air Temp Water Temp Dewpoint Dewpoint Depression Visibility Wind Speed Wind Dir Waves Ship Positions

Atalanti

Last reported at 2014-Aug-31 15:17 UTC. Time now 2014-Sep-01 11:26 UTC.
Position N 40°50' E 014°06'.

Length 97 m; draft 4.1 m.

Type: Other ship. MMSI: 212279000.

Date/timePositionNaut miles runAvg speedWind from/ knotsBaromVisibWave heightAir tempDewpointWater temp
2014-Aug-31 15:17N 40°50' E 014°06'0 0.0
2014-Aug-31 10:32N 40°50' E 014°06'0 0.0
2014-Aug-31 09:32N 40°50' E 014°06'0 0.0
2014-Aug-30 22:20N 40°50' E 014°06'0 0.0
2014-Aug-30 21:26N 40°50' E 014°06'0 0.0
2014-Aug-30 14:20N 40°50' E 014°06'0 0.0
2014-Aug-30 13:32N 40°50' E 014°06'0 0.0
2014-Aug-30 12:32N 40°50' E 014°06'0 0.0
2014-Aug-30 11:32N 40°50' E 014°06'0 0.0
2014-Aug-30 10:32N 40°50' E 014°06'1 0.0
2014-Aug-29 21:20N 40°49' E 014°07'0 0.0
2014-Aug-28 13:14N 40°49' E 014°07'0 0.0
2014-Aug-28 12:32N 40°49' E 014°07'131 4.4
2014-Aug-27 06:33N 39°45' E 011°38'8 6.5
2014-Aug-27 05:18N 39°41' E 011°28'5 6.5
2014-Aug-27 04:27N 39°39' E 011°22'6 6.6
2014-Aug-27 03:34N 39°36' E 011°15'7 6.7
2014-Aug-27 02:31N 39°33' E 011°07'50 6.7
2014-Aug-26 19:05N 39°11' E 010°09'4 6.9
2014-Aug-26 18:31N 39°10' E 010°04'7 7.2
2014-Aug-26 17:33N 39°07' E 009°56'7 7.1
2014-Aug-26 16:33N 39°04' E 009°48'7 6.9
2014-Aug-26 15:33N 39°01' E 009°40'6 6.6
2014-Aug-26 14:33N 38°58' E 009°33'6 6.5
2014-Aug-26 13:34N 38°56' E 009°25'7 6.5
2014-Aug-26 12:33N 38°54' E 009°17'7 6.6
2014-Aug-26 11:33N 38°52' E 009°08'7 6.7
2014-Aug-26 10:33N 38°51' E 009°00'7 6.6
2014-Aug-26 09:33N 38°49' E 008°52'7 6.4
2014-Aug-26 08:27N 38°47' E 008°43'6 6.5
2014-Aug-26 07:29N 38°45' E 008°35'6 6.7
2014-Aug-26 06:33N 38°44' E 008°28'7 6.9
2014-Aug-26 05:33N 38°42' E 008°19'7 7.3
2014-Aug-26 04:33N 38°40' E 008°10'7 7.5
2014-Aug-26 03:33N 38°38' E 008°01'7 7.4
2014-Aug-26 02:33N 38°36' E 007°52'7 7.4
2014-Aug-26 01:33N 38°34' E 007°43'22 7.2
2014-Aug-25 22:32N 38°28' E 007°16'8 7.3
2014-Aug-25 21:24N 38°26' E 007°06'51 7.3
2014-Aug-25 14:24N 38°12' E 006°03'6 7.4
2014-Aug-25 13:33N 38°10' E 005°55'43 7.2
2014-Aug-25 07:33N 38°00' E 005°02'7 7.3
2014-Aug-25 06:32N 37°58' E 004°52'7 7.3
2014-Aug-25 05:33N 37°56' E 004°44'7 7.2
2014-Aug-25 04:33N 37°54' E 004°35'7 7.1
2014-Aug-25 03:33N 37°52' E 004°26'7 6.9
2014-Aug-25 02:33N 37°50' E 004°18'7 6.8
2014-Aug-25 01:27N 37°48' E 004°09'  
2014-Aug-22 11:23N 35°60' W 005°15'810.1
2014-Aug-22 10:33N 35°58' W 005°25'  

Dump ship's entire track history